createdAt,value
2018-09-27T00:00:44.837Z,52.45
2018-09-27T00:01:44.863Z,50.36
2018-09-27T00:02:44.756Z,50.36
2018-09-27T00:03:44.719Z,49.60
2018-09-27T00:04:44.667Z,50.45
2018-09-27T00:05:44.640Z,49.60
2018-09-27T00:06:44.593Z,47.42
2018-09-27T00:07:44.567Z,46.09
2018-09-27T00:08:44.498Z,45.71
2018-09-27T00:09:44.483Z,45.52
2018-09-27T00:10:44.428Z,45.33
2018-09-27T00:11:44.374Z,44.38
2018-09-27T00:12:44.332Z,43.24
2018-09-27T00:13:44.297Z,41.06
2018-09-27T00:14:44.314Z,40.97
2018-09-27T00:15:44.220Z,40.61
2018-09-27T00:16:44.177Z,40.70
2018-09-27T00:17:44.132Z,41.27
2018-09-27T00:18:44.093Z,44.50
2018-09-27T00:19:44.087Z,48.39
2018-09-27T00:20:44.032Z,58.36
2018-09-27T00:21:43.961Z,62.15
2018-09-27T00:24:15.843Z,65.00
2018-09-27T00:25:15.823Z,65.56
2018-09-27T00:27:08.809Z,66.80
2018-09-27T00:28:08.716Z,66.99
2018-09-27T00:29:08.639Z,66.99
2018-09-27T00:30:08.622Z,65.85
2018-09-27T00:31:08.497Z,66.33
2018-09-27T00:32:08.452Z,66.80
2018-09-27T00:33:08.397Z,67.08
2018-09-27T00:34:08.446Z,67.85
2018-09-27T00:35:08.321Z,67.85
2018-09-27T00:36:08.296Z,67.37
2018-09-27T00:37:08.249Z,67.85
2018-09-27T00:38:08.222Z,66.04
2018-09-27T00:39:08.149Z,63.95
2018-09-27T00:40:08.118Z,65.56
2018-09-27T00:41:08.067Z,68.04
2018-09-27T00:42:08.049Z,73.35
2018-09-27T00:43:08.018Z,76.86
2018-09-27T00:44:07.938Z,77.33
2018-09-27T00:45:07.926Z,81.70
2018-09-27T00:46:07.852Z,77.33
2018-09-27T00:47:07.842Z,73.72
2018-09-27T00:48:07.767Z,72.68
2018-09-27T00:49:07.742Z,71.26
2018-09-27T00:50:07.701Z,67.27
2018-09-27T00:51:07.652Z,67.46
2018-09-27T00:52:07.628Z,68.23
2018-09-27T00:53:07.598Z,68.98
2018-09-27T00:54:07.535Z,73.16
2018-09-27T00:55:07.504Z,74.77
2018-09-27T00:56:07.461Z,74.20
2018-09-27T00:57:07.429Z,71.51
2018-09-27T00:58:07.369Z,68.10
2018-09-27T00:59:07.340Z,63.64
2018-09-27T01:00:07.278Z,60.44
2018-09-27T01:01:07.264Z,59.08
2018-09-27T01:02:07.196Z,59.37
2018-09-27T01:03:07.141Z,58.61
2018-09-27T01:04:07.116Z,57.95
2018-09-27T01:05:07.067Z,58.04
2018-09-27T01:06:07.033Z,57.57
2018-09-27T01:07:06.980Z,60.98
2018-09-27T01:08:06.936Z,64.05
2018-09-27T01:09:06.897Z,65.72
2018-09-27T01:10:06.864Z,68.48
2018-09-27T01:11:06.820Z,67.08
2018-09-27T01:12:06.771Z,63.76
2018-09-27T01:13:06.763Z,62.82
2018-09-27T01:14:06.698Z,60.82
2018-09-27T01:15:06.656Z,60.16
2018-09-27T01:16:06.623Z,59.78
2018-09-27T01:17:06.565Z,57.12
2018-09-27T01:18:06.533Z,56.84
2018-09-27T01:19:06.485Z,61.58
2018-09-27T01:20:06.449Z,63.48
2018-09-27T01:21:06.423Z,67.37
2018-09-27T01:22:06.345Z,69.36
2018-09-27T01:23:06.309Z,70.98
2018-09-27T01:24:06.262Z,72.97
2018-09-27T01:25:06.270Z,73.25
2018-09-27T01:26:06.187Z,68.89
2018-09-27T01:27:06.165Z,72.59
2018-09-27T01:28:06.113Z,74.49
2018-09-27T01:29:06.061Z,76.10
2018-09-27T01:30:06.016Z,74.68
2018-09-27T01:31:05.991Z,71.07
2018-09-27T01:32:05.946Z,69.17
2018-09-27T01:33:05.909Z,67.94
2018-09-27T01:34:05.869Z,65.85
2018-09-27T01:35:05.864Z,66.71
2018-09-27T01:36:05.763Z,67.18
2018-09-27T01:37:05.730Z,66.52
2018-09-27T01:38:05.692Z,65.37
2018-09-27T01:39:05.647Z,64.90
2018-09-27T01:40:05.601Z,64.52
2018-09-27T01:41:05.556Z,63.29
2018-09-27T01:42:05.522Z,62.34
2018-09-27T01:43:05.484Z,61.20
2018-09-27T01:44:05.453Z,58.36
2018-09-27T01:45:05.431Z,56.36
2018-09-27T01:46:05.343Z,53.70
2018-09-27T01:47:05.382Z,51.52
2018-09-27T01:48:05.279Z,50.38
2018-09-27T01:49:05.235Z,51.14
2018-09-27T01:50:05.192Z,51.17
2018-09-27T01:51:05.167Z,51.17
2018-09-27T01:52:05.106Z,50.22
2018-09-27T01:53:05.063Z,50.98
2018-09-27T01:54:05.024Z,55.44
2018-09-27T01:55:04.969Z,61.52
2018-09-27T01:56:04.984Z,63.70
2018-09-27T01:57:04.894Z,65.69
2018-09-27T01:58:04.842Z,66.74
2018-09-27T01:59:04.803Z,67.97
2018-09-27T02:00:04.757Z,66.36
2018-09-27T02:01:04.715Z,64.65
2018-09-27T02:02:04.674Z,63.70
2018-09-27T02:03:04.652Z,66.74
2018-09-27T02:04:04.624Z,69.96
2018-09-27T02:05:04.564Z,73.38
2018-09-27T02:06:04.550Z,76.14
2018-09-27T02:07:04.480Z,76.42
2018-09-27T02:08:04.443Z,74.71
2018-09-27T02:09:04.383Z,73.67
2018-09-27T02:10:04.395Z,71.39
2018-09-27T02:11:04.309Z,70.63
2018-09-27T02:12:04.262Z,72.15
2018-09-27T02:13:04.237Z,74.90
2018-09-27T02:14:04.201Z,79.27
2018-09-27T02:15:04.166Z,82.03
2018-09-27T02:16:04.126Z,84.68
2018-09-27T02:17:04.062Z,82.59
2018-09-27T02:18:04.061Z,83.64
2018-09-27T02:19:03.967Z,83.16
2018-09-27T02:20:03.955Z,79.94
2018-09-27T02:21:03.892Z,75.76
2018-09-27T02:22:03.861Z,74.52
2018-09-27T02:23:03.826Z,71.77
2018-09-27T02:24:03.792Z,69.17
2018-09-27T02:25:03.732Z,68.70
2018-09-27T02:26:03.695Z,70.69
2018-09-27T02:27:03.670Z,75.62
2018-09-27T02:28:03.598Z,77.62
2018-09-27T02:29:03.580Z,76.95
2018-09-27T02:30:03.552Z,76.10
2018-09-27T02:31:03.502Z,76.86
2018-09-27T02:32:03.440Z,73.07
2018-09-27T02:33:03.416Z,67.56
2018-09-27T02:34:03.381Z,63.20
2018-09-27T02:35:03.360Z,64.24
2018-09-27T02:36:03.272Z,67.56
2018-09-27T02:37:03.228Z,69.46
2018-09-27T02:38:03.198Z,67.85
2018-09-27T02:39:03.151Z,65.75
2018-09-27T02:40:03.150Z,68.04
2018-09-27T02:41:03.078Z,61.58
2018-09-27T02:42:03.060Z,57.69
2018-09-27T02:43:02.982Z,56.27
2018-09-27T02:44:02.950Z,57.06
2018-09-27T02:45:02.899Z,59.05
2018-09-27T02:46:02.849Z,61.04
2018-09-27T02:47:02.824Z,62.34
2018-09-27T02:48:02.789Z,63.70
2018-09-27T02:49:02.730Z,64.62
2018-09-27T02:50:02.725Z,64.94
2018-09-27T02:51:02.645Z,64.75
2018-09-27T02:52:02.603Z,70.25
2018-09-27T02:53:02.552Z,77.56
2018-09-27T02:54:02.521Z,83.92
2018-09-27T02:55:02.479Z,77.09
2018-09-27T02:56:02.508Z,72.15
2018-09-27T02:57:02.434Z,69.68
2018-09-27T02:58:02.355Z,67.97
2018-09-27T02:59:02.349Z,65.12
2018-09-27T03:00:02.287Z,62.18
2018-09-27T03:01:02.233Z,61.33
2018-09-27T03:02:02.245Z,61.61
2018-09-27T03:03:02.196Z,60.00
2018-09-27T03:04:02.118Z,59.24
2018-09-27T03:05:02.101Z,58.00
2018-09-27T03:06:02.046Z,58.48
2018-09-27T03:07:02.008Z,59.81
2018-09-27T03:08:01.986Z,61.42
2018-09-27T03:09:01.896Z,61.90
2018-09-27T03:10:01.870Z,62.27
2018-09-27T03:11:01.845Z,63.98
2018-09-27T03:12:01.789Z,64.37
2018-09-27T03:13:01.801Z,67.50
2018-09-27T03:14:01.704Z,71.39
2018-09-27T03:15:01.694Z,72.34
2018-09-27T03:16:01.627Z,70.44
2018-09-27T03:17:01.581Z,68.64
2018-09-27T03:18:01.572Z,66.93
2018-09-27T03:19:01.496Z,64.27
2018-09-27T03:20:01.458Z,64.17
2018-09-27T03:21:01.445Z,64.56
2018-09-27T03:22:01.398Z,62.18
2018-09-27T03:23:01.323Z,63.51
2018-09-27T03:24:01.285Z,64.94
2018-09-27T03:25:01.262Z,66.27
2018-09-27T03:26:01.220Z,65.79
2018-09-27T03:27:01.168Z,71.01
2018-09-27T03:28:01.124Z,77.37
2018-09-27T03:29:01.111Z,80.51
2018-09-27T03:30:01.045Z,79.65
2018-09-27T03:31:01.019Z,76.52
2018-09-27T03:32:01.004Z,74.71
2018-09-27T03:33:00.907Z,72.72
2018-09-27T03:34:00.916Z,71.67
2018-09-27T03:35:00.825Z,70.73
2018-09-27T03:36:00.820Z,70.44
2018-09-27T03:37:00.754Z,70.63
2018-09-27T03:38:00.715Z,71.01
2018-09-27T03:39:00.667Z,68.73
2018-09-27T03:40:00.636Z,67.59
2018-09-27T03:41:00.599Z,67.31
2018-09-27T03:42:00.576Z,67.50
2018-09-27T03:43:00.504Z,67.02
2018-09-27T03:44:00.494Z,65.79
2018-09-27T03:45:00.418Z,62.75
2018-09-27T03:46:00.394Z,61.42
2018-09-27T03:47:00.352Z,61.14
2018-09-27T03:48:00.339Z,60.76
2018-09-27T03:49:00.286Z,59.24
2018-09-27T03:50:00.233Z,57.34
2018-09-27T03:51:00.274Z,58.58
2018-09-27T03:52:00.153Z,59.81
2018-09-27T03:53:00.092Z,60.66
2018-09-27T03:54:00.048Z,60.66
2018-09-27T03:55:00.012Z,60.57
2018-09-27T03:55:59.988Z,59.52
2018-09-27T03:56:59.966Z,61.04
2018-09-27T03:57:59.912Z,61.99
2018-09-27T03:58:59.838Z,65.41
2018-09-27T03:59:59.818Z,65.12
2018-09-27T04:00:59.766Z,64.17
2018-09-27T04:01:59.735Z,62.94
2018-09-27T04:02:59.691Z,63.51
2018-09-27T04:03:59.670Z,63.51
2018-09-27T04:04:59.674Z,64.46
2018-09-27T04:05:59.547Z,63.51
2018-09-27T04:07:00.002Z,60.95
2018-09-27T04:07:59.471Z,62.08
2018-09-27T04:08:59.425Z,65.31
2018-09-27T04:09:59.402Z,67.50
2018-09-27T04:10:59.391Z,67.59
2018-09-27T04:11:59.322Z,65.03
2018-09-27T04:12:59.264Z,66.17
2018-09-27T04:13:59.247Z,67.88
2018-09-27T04:14:59.207Z,67.59
2018-09-27T04:15:59.168Z,66.27
2018-09-27T04:16:59.165Z,66.74
2018-09-27T04:17:59.074Z,70.25
2018-09-27T04:18:59.038Z,73.29
2018-09-27T04:19:58.998Z,75.38
2018-09-27T04:20:58.928Z,75.57
2018-09-27T04:21:58.927Z,74.24
2018-09-27T04:22:58.857Z,74.24
2018-09-27T04:23:58.974Z,73.38
2018-09-27T04:24:58.790Z,71.96
2018-09-27T04:25:58.739Z,72.91
2018-09-27T04:26:58.751Z,75.00
2018-09-27T04:27:58.696Z,75.19
2018-09-27T04:28:58.618Z,75.09
2018-09-27T04:29:58.592Z,74.90
2018-09-27T04:30:58.616Z,74.24
2018-09-27T04:31:58.576Z,74.15
2018-09-27T04:32:58.455Z,73.38
2018-09-27T04:33:58.577Z,70.92
2018-09-27T04:34:58.406Z,69.87
2018-09-27T04:35:58.321Z,67.88
2018-09-27T04:36:58.295Z,66.17
2018-09-27T04:37:58.254Z,65.16
2018-09-27T04:38:58.245Z,65.82
2018-09-27T04:39:58.154Z,63.92
2018-09-27T04:40:58.139Z,61.83
2018-09-27T04:41:58.077Z,61.36
2018-09-27T04:42:58.044Z,61.36
2018-09-27T04:43:57.984Z,62.21
2018-09-27T04:44:57.937Z,64.97
2018-09-27T04:45:58.032Z,66.39
2018-09-27T04:46:57.862Z,65.44
2018-09-27T04:47:57.829Z,64.78
2018-09-27T04:48:57.790Z,64.02
2018-09-27T04:49:57.737Z,63.17
2018-09-27T04:50:57.694Z,63.54
2018-09-27T04:51:57.778Z,66.87
2018-09-27T04:52:57.628Z,69.91
2018-09-27T04:53:57.648Z,71.90
2018-09-27T04:54:57.556Z,72.47
2018-09-27T04:55:57.503Z,73.04
2018-09-27T04:56:57.462Z,76.56
2018-09-27T04:57:57.445Z,75.79
2018-09-27T04:58:57.385Z,72.95
2018-09-27T04:59:57.397Z,72.95
2018-09-27T05:00:57.285Z,70.48
2018-09-27T05:01:57.278Z,69.71
2018-09-27T05:02:57.217Z,67.72
2018-09-27T05:03:57.259Z,67.53
2018-09-27T05:04:57.128Z,67.34
2018-09-27T05:05:57.107Z,67.91
2018-09-27T05:06:57.111Z,67.63
2018-09-27T05:07:57.064Z,68.58
2018-09-27T05:08:57.012Z,68.71
2018-09-27T05:09:56.942Z,67.91
2018-09-27T05:10:56.903Z,68.42
2018-09-27T05:11:56.850Z,68.23
2018-09-27T05:12:56.905Z,68.23
2018-09-27T05:13:56.777Z,71.94
2018-09-27T05:14:56.754Z,73.93
2018-09-27T05:15:56.798Z,74.22
2018-09-27T05:16:56.650Z,75.26
2018-09-27T05:17:56.613Z,77.45
2018-09-27T05:18:56.576Z,79.63
2018-09-27T05:19:56.511Z,81.44
2018-09-27T05:20:56.501Z,85.24
2018-09-27T05:21:56.471Z,80.96
2018-09-27T05:22:56.446Z,75.07
2018-09-27T05:23:56.386Z,75.26
2018-09-27T05:24:56.339Z,76.03
2018-09-27T05:25:56.278Z,75.45
2018-09-27T05:26:56.251Z,72.41
2018-09-27T05:27:56.243Z,75.84
2018-09-27T05:28:56.153Z,78.59
2018-09-27T05:29:56.199Z,78.21
2018-09-27T05:30:56.088Z,84.58
2018-09-27T05:31:56.066Z,90.75
2018-09-27T05:32:56.003Z,91.23
2018-09-27T05:33:56.036Z,91.61
2018-09-27T05:34:55.916Z,89.80
2018-09-27T05:35:55.875Z,87.14
2018-09-27T05:36:55.858Z,85.91
2018-09-27T05:37:55.790Z,88.95
2018-09-27T05:38:55.774Z,89.23
2018-09-27T05:39:55.729Z,89.90
2018-09-27T05:40:55.684Z,90.09
2018-09-27T05:41:55.641Z,90.37
2018-09-27T05:42:55.588Z,90.66
2018-09-27T05:43:55.596Z,88.85
2018-09-27T05:44:55.528Z,86.19
2018-09-27T05:45:55.518Z,86.71
2018-09-27T05:46:55.500Z,87.34
2018-09-27T05:47:55.466Z,88.23
2018-09-27T05:48:55.345Z,88.13
2018-09-27T05:49:55.340Z,87.47
2018-09-27T05:50:55.292Z,87.38
2018-09-27T05:51:55.244Z,93.65
2018-09-27T05:52:55.205Z,93.84
2018-09-27T05:53:55.148Z,96.08
2018-09-27T05:54:55.134Z,97.98
2018-09-27T05:55:55.161Z,99.60
2018-09-27T05:56:55.039Z,98.83
2018-09-27T05:57:55.023Z,97.41
2018-09-27T05:58:54.962Z,96.26
2018-09-27T05:59:54.930Z,96.31
2018-09-27T06:00:54.935Z,96.89
2018-09-27T06:01:54.943Z,96.98
2018-09-27T06:02:54.785Z,97.27
2018-09-27T06:03:54.769Z,96.89
2018-09-27T06:04:54.739Z,99.99
2018-09-27T06:05:54.675Z,99.99
2018-09-27T06:06:54.657Z,99.99
2018-09-27T06:07:54.602Z,99.99
2018-09-27T06:08:54.564Z,99.99
2018-09-27T06:09:54.524Z,99.99
2018-09-27T06:10:54.479Z,99.99
2018-09-27T06:11:54.447Z,99.99
2018-09-27T06:12:54.396Z,99.99
2018-09-27T06:13:54.377Z,99.99
2018-09-27T06:14:54.319Z,99.99
2018-09-27T06:15:54.293Z,99.99
2018-09-27T06:16:54.236Z,99.99
2018-09-27T06:17:54.200Z,99.99
2018-09-27T06:18:54.165Z,99.99
2018-09-27T06:19:54.167Z,99.99
2018-09-27T06:20:54.119Z,99.99
2018-09-27T06:21:54.038Z,99.99
2018-09-27T06:22:54.063Z,99.99
2018-09-27T06:23:53.966Z,99.99
2018-09-27T06:24:53.916Z,99.99
2018-09-27T06:25:53.888Z,99.99
2018-09-27T06:26:53.848Z,99.99
2018-09-27T06:27:53.850Z,99.99
2018-09-27T06:28:53.772Z,99.99
2018-09-27T06:29:53.744Z,99.99
2018-09-27T06:30:53.697Z,99.99
2018-09-27T06:31:53.721Z,99.99
2018-09-27T06:32:53.611Z,99.99
2018-09-27T06:33:53.590Z,99.99
2018-09-27T06:34:53.553Z,99.99
2018-09-27T06:35:53.527Z,99.99
2018-09-27T06:36:53.486Z,99.99
2018-09-27T06:37:53.408Z,99.99
2018-09-27T06:38:53.390Z,99.99
2018-09-27T06:39:53.351Z,99.99
2018-09-27T06:40:53.315Z,99.99
2018-09-27T06:41:53.265Z,99.99
2018-09-27T06:42:53.227Z,99.99
2018-09-27T06:43:53.188Z,99.99
2018-09-27T06:44:53.165Z,99.99
2018-09-27T06:45:53.135Z,99.99
2018-09-27T06:46:53.088Z,99.99
2018-09-27T06:47:53.098Z,99.99
2018-09-27T06:48:53.176Z,99.99
2018-09-27T06:49:52.957Z,99.99
2018-09-27T06:50:52.945Z,99.99
2018-09-27T06:51:52.929Z,99.99
2018-09-27T06:52:52.843Z,99.99
2018-09-27T06:53:52.815Z,99.99
2018-09-27T06:54:52.894Z,99.99
2018-09-27T06:55:52.880Z,99.99
2018-09-27T06:56:52.722Z,99.99
2018-09-27T06:57:52.668Z,99.99
2018-09-27T06:58:52.635Z,99.99
2018-09-27T06:59:52.584Z,99.99
2018-09-27T07:00:52.571Z,99.99
2018-09-27T07:01:52.527Z,99.99
2018-09-27T07:02:52.493Z,99.99
2018-09-27T07:03:52.457Z,99.99
2018-09-27T07:04:52.419Z,99.99
2018-09-27T07:05:52.373Z,99.99
2018-09-27T07:06:52.352Z,99.99
2018-09-27T07:07:52.325Z,99.99
2018-09-27T07:08:52.286Z,99.99
2018-09-27T07:09:52.219Z,99.99
2018-09-27T07:10:52.194Z,99.99
2018-09-27T07:11:52.227Z,99.99
2018-09-27T07:12:52.177Z,99.99
2018-09-27T07:13:52.093Z,99.99
2018-09-27T07:14:52.033Z,99.99
2018-09-27T07:15:52.018Z,99.99
2018-09-27T07:16:51.968Z,99.99
2018-09-27T07:17:51.940Z,99.99
2018-09-27T07:18:51.934Z,99.99
2018-09-27T07:19:51.883Z,99.99
2018-09-27T07:20:51.846Z,99.99
2018-09-27T07:21:51.814Z,99.99
2018-09-27T07:22:51.782Z,99.99
2018-09-27T07:23:51.710Z,99.99
2018-09-27T07:24:51.684Z,99.99
2018-09-27T07:25:51.656Z,99.99
2018-09-27T07:26:51.655Z,99.99
2018-09-27T07:27:51.601Z,99.99
2018-09-27T07:28:52.166Z,99.99
2018-09-27T07:29:51.541Z,99.99
2018-09-27T07:30:51.508Z,99.99
2018-09-27T07:31:51.465Z,99.99
2018-09-27T07:32:51.425Z,99.99
2018-09-27T07:33:51.369Z,99.99
2018-09-27T07:34:51.345Z,99.99
2018-09-27T07:35:51.318Z,99.99
2018-09-27T07:36:51.290Z,99.99
2018-09-27T07:37:51.230Z,99.99
2018-09-27T07:38:51.196Z,99.99
2018-09-27T07:39:51.151Z,99.99
2018-09-27T07:40:51.127Z,99.99
2018-09-27T07:41:51.079Z,99.99
2018-09-27T07:42:51.167Z,99.99
2018-09-27T07:43:51.026Z,99.99
2018-09-27T07:44:50.981Z,99.99
2018-09-27T07:45:50.956Z,99.99
2018-09-27T07:46:50.925Z,99.99
2018-09-27T07:47:50.888Z,99.99
2018-09-27T07:48:50.865Z,99.99
2018-09-27T07:49:50.803Z,99.99
2018-09-27T07:50:50.804Z,99.99
2018-09-27T07:51:50.736Z,99.99
2018-09-27T07:52:50.704Z,99.99
2018-09-27T07:53:50.671Z,99.99
2018-09-27T07:54:50.726Z,99.99
2018-09-27T07:55:50.607Z,99.99
2018-09-27T07:56:50.567Z,99.99
2018-09-27T07:57:50.563Z,99.99
2018-09-27T07:58:50.534Z,99.99
2018-09-27T07:59:50.493Z,98.10
2018-09-27T08:00:50.444Z,92.00
2018-09-27T08:01:50.417Z,91.71
2018-09-27T08:02:50.480Z,91.81
2018-09-27T08:03:50.343Z,91.86
2018-09-27T08:04:50.316Z,95.03
2018-09-27T08:05:50.295Z,99.99
2018-09-27T08:06:50.252Z,99.99
2018-09-27T08:07:50.309Z,99.99
2018-09-27T08:08:50.210Z,99.99
2018-09-27T08:09:50.152Z,99.99
2018-09-27T08:10:50.298Z,99.99
2018-09-27T08:11:50.160Z,99.99
2018-09-27T08:12:50.060Z,99.99
2018-09-27T08:13:50.020Z,94.69
2018-09-27T08:14:49.988Z,99.99
2018-09-27T08:15:49.996Z,99.99
2018-09-27T08:16:49.948Z,96.18
2018-09-27T08:17:49.889Z,95.41
2018-09-27T08:18:49.865Z,97.66
2018-09-27T08:19:49.846Z,89.45
2018-09-27T08:20:49.867Z,91.99
2018-09-27T08:21:49.755Z,85.11
2018-09-27T08:22:49.747Z,80.50
2018-09-27T08:23:49.705Z,72.80
2018-09-27T08:24:49.672Z,72.90
2018-09-27T08:25:49.628Z,72.23
2018-09-27T08:26:49.624Z,62.68
2018-09-27T08:27:49.571Z,73.92
2018-09-27T08:28:49.523Z,72.86
2018-09-27T08:29:49.503Z,77.44
2018-09-27T08:30:49.551Z,74.52
2018-09-27T08:31:49.456Z,77.59
2018-09-27T08:32:49.407Z,74.33
2018-09-27T08:33:49.483Z,71.06
2018-09-27T08:34:49.368Z,75.04
2018-09-27T08:35:49.289Z,66.93
2018-09-27T08:36:49.285Z,63.79
2018-09-27T08:37:49.247Z,62.74
2018-09-27T08:38:49.295Z,61.58
2018-09-27T08:39:49.182Z,59.89
2018-09-27T08:40:49.169Z,60.59
2018-09-27T08:41:49.109Z,68.57
2018-09-27T08:42:49.095Z,67.93
2018-09-27T08:43:49.063Z,61.87
2018-09-27T08:44:49.131Z,59.56
2018-09-27T08:45:49.040Z,70.37
2018-09-27T08:46:48.986Z,58.24
2018-09-27T08:47:48.958Z,57.31
2018-09-27T08:48:48.915Z,55.70
2018-09-27T08:49:48.864Z,56.76
2018-09-27T08:50:48.875Z,53.58
2018-09-27T08:51:48.805Z,53.41
2018-09-27T08:52:48.780Z,56.91
2018-09-27T08:53:48.779Z,57.14
2018-09-27T08:54:48.723Z,53.27
2018-09-27T08:55:48.708Z,52.47
2018-09-27T08:56:48.659Z,53.73
2018-09-27T08:57:48.625Z,57.87
2018-09-27T08:58:48.610Z,60.61
2018-09-27T08:59:48.589Z,54.43
2018-09-27T09:00:48.545Z,52.91
2018-09-27T09:01:48.538Z,56.51
2018-09-27T09:02:48.499Z,54.13
2018-09-27T09:03:48.534Z,51.23
2018-09-27T09:04:48.446Z,50.74
2018-09-27T09:05:48.420Z,49.19
2018-09-27T09:06:48.425Z,48.32
2018-09-27T09:07:48.442Z,49.68
2018-09-27T09:08:48.365Z,50.91
2018-09-27T09:09:48.296Z,49.37
2018-09-27T09:10:48.295Z,50.62
2018-09-27T09:11:48.276Z,48.97
2018-09-27T09:12:48.237Z,47.74
2018-09-27T09:13:48.205Z,47.19
2018-09-27T09:14:48.207Z,47.02
2018-09-27T09:15:48.192Z,45.59
2018-09-27T09:16:48.128Z,46.67
2018-09-27T09:17:48.155Z,44.18
2018-09-27T09:18:48.098Z,44.86
2018-09-27T09:19:48.065Z,43.04
2018-09-27T09:20:48.200Z,42.94
2018-09-27T09:21:48.116Z,42.75
2018-09-27T09:22:48.195Z,44.01
2018-09-27T09:23:48.126Z,43.08
2018-09-27T09:24:48.068Z,43.45
2018-09-27T09:25:48.142Z,43.87
2018-09-27T09:26:47.919Z,46.70
2018-09-27T09:27:48.026Z,48.01
2018-09-27T09:28:47.904Z,50.81
2018-09-27T09:29:48.079Z,47.65
2018-09-27T09:30:48.000Z,47.77
2018-09-27T09:31:47.941Z,46.00
2018-09-27T09:32:47.880Z,47.41
2018-09-27T09:33:47.748Z,48.64
2018-09-27T09:34:47.730Z,48.06
2018-09-27T09:35:47.721Z,47.96
2018-09-27T09:36:47.676Z,47.96
2018-09-27T09:37:47.653Z,49.41
2018-09-27T09:38:47.664Z,49.02
2018-09-27T09:39:47.649Z,51.85
2018-09-27T09:40:47.578Z,57.09
2018-09-27T09:41:47.575Z,52.94
2018-09-27T09:42:47.585Z,53.61
2018-09-27T09:43:47.535Z,49.17
2018-09-27T09:44:50.208Z,49.75
2018-09-27T09:45:47.473Z,53.42
2018-09-27T09:46:47.455Z,49.58
2018-09-27T09:47:47.422Z,47.33
2018-09-27T09:48:47.423Z,50.96
2018-09-27T09:49:47.400Z,47.33
2018-09-27T09:50:47.387Z,43.22
2018-09-27T09:51:47.348Z,43.12
2018-09-27T09:52:47.399Z,41.96
2018-09-27T09:53:47.381Z,41.77
2018-09-27T09:54:47.319Z,41.77
2018-09-27T09:55:47.445Z,42.95
2018-09-27T09:56:47.302Z,47.71
2018-09-27T09:57:47.452Z,41.59
2018-09-27T09:58:47.436Z,44.99
2018-09-27T09:59:47.344Z,44.78
2018-09-27T10:00:47.213Z,43.41
2018-09-27T10:01:47.192Z,43.06
2018-09-27T10:02:47.218Z,45.47
2018-09-27T10:03:47.121Z,44.13
2018-09-27T10:04:47.267Z,43.57
2018-09-27T10:05:47.250Z,42.13
2018-09-27T10:06:47.161Z,41.98
2018-09-27T10:07:47.239Z,40.44
2018-09-27T10:08:46.989Z,40.25
2018-09-27T10:09:46.983Z,46.57
2018-09-27T10:10:46.908Z,43.65
2018-09-27T10:11:46.897Z,42.70
2018-09-27T10:12:46.889Z,42.50
2018-09-27T10:13:46.877Z,42.99
2018-09-27T10:14:46.874Z,42.33
2018-09-27T10:15:46.814Z,41.13
2018-09-27T10:16:46.784Z,41.90
2018-09-27T10:17:46.793Z,42.39
2018-09-27T10:18:46.754Z,40.79
2018-09-27T10:19:46.740Z,40.36
2018-09-27T10:20:46.715Z,42.30
2018-09-27T10:21:46.738Z,41.26
2018-09-27T10:22:46.678Z,42.05
2018-09-27T10:23:46.665Z,40.52
2018-09-27T10:24:46.643Z,41.71
2018-09-27T10:25:46.613Z,42.00
2018-09-27T10:26:46.599Z,40.48
2018-09-27T10:27:46.574Z,41.53
2018-09-27T10:28:46.543Z,40.19
2018-09-27T10:29:46.539Z,41.67
2018-09-27T10:30:46.525Z,40.09
2018-09-27T10:31:46.487Z,40.26
2018-09-27T10:32:46.488Z,40.85
2018-09-27T10:33:46.455Z,41.72
2018-09-27T10:34:46.450Z,45.02
2018-09-27T10:35:46.422Z,44.85
2018-09-27T10:36:46.396Z,43.01
2018-09-27T10:37:46.389Z,42.44
2018-09-27T10:38:46.367Z,41.24
2018-09-27T10:39:46.330Z,44.59
2018-09-27T10:40:46.299Z,46.07
2018-09-27T10:41:46.291Z,46.94
2018-09-27T10:42:46.282Z,45.48
2018-09-27T10:43:46.255Z,44.90
2018-09-27T10:44:46.253Z,44.51
2018-09-27T10:45:46.219Z,44.54
2018-09-27T10:46:46.177Z,43.01
2018-09-27T10:47:46.167Z,42.05
2018-09-27T10:48:46.136Z,41.86
2018-09-27T10:49:46.144Z,43.02
2018-09-27T10:50:46.106Z,43.01
2018-09-27T10:51:46.110Z,43.30
2018-09-27T10:52:46.072Z,42.08
2018-09-27T10:53:46.055Z,42.10
2018-09-27T10:54:46.016Z,42.00
2018-09-27T10:55:46.009Z,40.47
2018-09-27T10:56:45.988Z,42.68
2018-09-27T10:57:45.962Z,44.33
2018-09-27T10:58:45.948Z,43.16
2018-09-27T10:59:45.973Z,44.00
2018-09-27T11:00:45.902Z,41.84
2018-09-27T11:01:45.868Z,42.05
2018-09-27T11:02:45.857Z,43.12
2018-09-27T11:03:45.845Z,44.07
2018-09-27T11:04:45.811Z,42.21
2018-09-27T11:05:45.877Z,44.15
2018-09-27T11:06:45.783Z,46.48
2018-09-27T11:07:45.788Z,47.42
2018-09-27T11:08:45.720Z,46.75
2018-09-27T11:09:45.714Z,46.09
2018-09-27T11:10:45.711Z,46.09
2018-09-27T11:11:45.692Z,47.30
2018-09-27T11:12:45.642Z,46.64
2018-09-27T11:13:45.625Z,44.92
2018-09-27T11:14:45.624Z,44.04
2018-09-27T11:15:45.596Z,46.81
2018-09-27T11:16:45.575Z,46.42
2018-09-27T11:17:45.553Z,43.12
2018-09-27T11:18:45.532Z,44.29
2018-09-27T11:19:45.508Z,44.24
2018-09-27T11:20:45.511Z,45.99
2018-09-27T11:21:45.458Z,46.48
2018-09-27T11:22:45.450Z,47.45
2018-09-27T11:23:45.411Z,46.84
2018-09-27T11:24:45.406Z,47.25
2018-09-27T11:25:45.385Z,47.83
2018-09-27T11:26:45.426Z,47.64
2018-09-27T11:27:45.356Z,48.03
2018-09-27T11:28:45.340Z,47.64
2018-09-27T11:29:45.335Z,48.80
2018-09-27T11:30:45.306Z,49.58
2018-09-27T11:31:45.266Z,49.61
2018-09-27T11:32:45.236Z,51.06
2018-09-27T11:33:45.221Z,50.65
2018-09-27T11:34:45.208Z,51.01
2018-09-27T11:35:45.171Z,51.62
2018-09-27T11:36:45.173Z,52.66
2018-09-27T11:37:45.155Z,54.48
2018-09-27T11:38:45.111Z,54.80
2018-09-27T11:39:45.108Z,54.38
2018-09-27T11:40:45.070Z,53.70
2018-09-27T11:41:45.083Z,54.19
2018-09-27T11:42:45.080Z,55.74
2018-09-27T11:43:45.042Z,54.70
2018-09-27T11:44:45.004Z,54.82
2018-09-27T11:45:44.973Z,53.15
2018-09-27T11:46:44.988Z,53.89
2018-09-27T11:47:44.931Z,54.60
2018-09-27T11:48:44.907Z,54.67
2018-09-27T11:49:45.010Z,55.67
2018-09-27T11:50:44.868Z,54.53
2018-09-27T11:51:44.862Z,54.27
2018-09-27T11:52:44.819Z,54.56
2018-09-27T11:53:44.808Z,52.52
2018-09-27T11:54:44.817Z,52.13
2018-09-27T11:55:44.754Z,52.33
2018-09-27T11:56:44.729Z,52.62
2018-09-27T11:57:44.713Z,52.42
2018-09-27T11:58:44.707Z,53.37
2018-09-27T11:59:44.688Z,54.02
2018-09-27T12:00:44.733Z,55.32
2018-09-27T12:01:44.684Z,55.98
2018-09-27T12:02:44.598Z,58.72
2018-09-27T12:03:44.588Z,63.20
2018-09-27T12:04:44.573Z,57.58
2018-09-27T12:05:44.546Z,55.74
2018-09-27T12:06:44.662Z,56.03
2018-09-27T12:07:44.676Z,56.93
2018-09-27T12:08:44.489Z,58.70
2018-09-27T12:09:44.452Z,58.51
2018-09-27T12:10:44.437Z,54.99
2018-09-27T12:11:44.449Z,54.48
2018-09-27T12:12:44.396Z,55.67
2018-09-27T12:13:44.371Z,55.77
2018-09-27T12:14:44.426Z,56.25
2018-09-27T12:15:44.326Z,57.22
2018-09-27T12:16:44.420Z,56.90
2018-09-27T12:17:44.354Z,56.93
2018-09-27T12:18:44.304Z,57.12
2018-09-27T12:19:44.292Z,57.12
2018-09-27T12:20:44.215Z,57.03
2018-09-27T12:21:44.194Z,57.09
2018-09-27T12:22:44.183Z,57.00
2018-09-27T12:23:44.142Z,57.12
2018-09-27T12:24:44.140Z,56.05
2018-09-27T12:25:44.163Z,56.05
2018-09-27T12:26:44.141Z,56.25
2018-09-27T12:27:44.075Z,55.11
2018-09-27T12:28:44.101Z,54.31
2018-09-27T12:29:44.032Z,57.42
2018-09-27T12:30:43.999Z,57.19
2018-09-27T12:31:43.984Z,54.58
2018-09-27T12:32:43.957Z,55.83
2018-09-27T12:33:43.928Z,55.64
2018-09-27T12:34:43.905Z,57.09
2018-09-27T12:35:43.918Z,57.03
2018-09-27T12:36:43.935Z,56.64
2018-09-27T12:37:43.864Z,54.41
2018-09-27T12:38:43.824Z,55.11
2018-09-27T12:39:43.862Z,54.44
2018-09-27T12:40:43.840Z,54.82
2018-09-27T12:41:43.858Z,54.53
2018-09-27T12:42:43.816Z,54.90
2018-09-27T12:43:43.731Z,54.53
2018-09-27T12:44:43.685Z,53.27
2018-09-27T12:45:43.825Z,57.44
2018-09-27T12:46:43.688Z,54.72
2018-09-27T12:47:43.658Z,54.63
2018-09-27T12:48:43.693Z,55.28
2018-09-27T12:49:43.583Z,55.67
2018-09-27T12:50:43.583Z,54.34
2018-09-27T12:51:43.698Z,60.55
2018-09-27T12:52:43.531Z,55.73
2018-09-27T12:53:43.512Z,55.11
2018-09-27T12:54:43.466Z,54.92